Terminal Aerodrome Forecast
Issued by NWS Wilmington, OH

Current Version | Previous Version | Text Only | Print | Product List | Glossary On
Versions: 1 2 3 4 5 6 7 8 9 10 11 12 13 14 15 16 17 18 19 20 21 22 23 24 25 26 27 28 29 30
095 FTUS41 KILN 301742 TAFILN TAF KILN 301742Z 3018/0118 10008KT 2SM SHRA BR SCT008 OVC015 FM302200 14010KT 4SM BR OVC008 FM010300 18010KT 4SM BR VCTS OVC015CB TEMPO 0103/0107 2SM SHRA BR OVC008 FM010700 20006KT 4SM BR OVC007 FM011400 23006KT P6SM BKN015=

USA.gov is the U.S. government's official web portal to all federal, state and local government web resources and services.